createdAt,value
2018-05-04T00:00:13.861Z,73.21
2018-05-04T00:00:50.567Z,73.49
2018-05-04T00:01:27.768Z,73.01
2018-05-04T00:02:04.103Z,73.21
2018-05-04T00:02:39.681Z,72.92
2018-05-04T00:03:15.214Z,73.77
2018-05-04T00:03:50.850Z,73.87
2018-05-04T00:04:26.273Z,73.77
2018-05-04T00:05:01.506Z,73.39
2018-05-04T00:05:37.968Z,73.77
2018-05-04T00:06:13.324Z,73.68
2018-05-04T00:06:48.681Z,73.30
2018-05-04T00:07:24.236Z,73.58
2018-05-04T00:08:00.687Z,73.87
2018-05-04T00:08:36.213Z,73.39
2018-05-04T00:09:11.628Z,73.77
2018-05-04T00:09:46.866Z,73.39
2018-05-04T00:10:24.404Z,73.11
2018-05-04T00:11:00.074Z,73.96
2018-05-04T00:11:35.746Z,73.68
2018-05-04T00:12:11.943Z,73.96
2018-05-04T00:12:47.082Z,73.87
2018-05-04T00:13:22.611Z,73.49
2018-05-04T00:13:58.027Z,74.06
2018-05-04T00:14:33.594Z,73.87
2018-05-04T00:15:10.217Z,73.58
2018-05-04T00:15:49.963Z,73.96
2018-05-04T00:16:25.692Z,73.68
2018-05-04T00:17:01.149Z,73.68
2018-05-04T00:17:36.467Z,73.39
2018-05-04T00:18:11.692Z,73.21
2018-05-04T00:18:47.002Z,74.25
2018-05-04T00:19:22.438Z,73.01
2018-05-04T00:19:57.764Z,73.87
2018-05-04T00:20:33.283Z,73.58
2018-05-04T00:21:08.719Z,74.16
2018-05-04T00:21:44.070Z,73.58
2018-05-04T00:22:19.533Z,73.87
2018-05-04T00:22:54.912Z,74.06
2018-05-04T00:23:30.352Z,73.49
2018-05-04T00:24:05.831Z,73.87
2018-05-04T00:24:42.219Z,73.87
2018-05-04T00:25:17.767Z,73.58
2018-05-04T00:25:54.623Z,73.58
2018-05-04T00:26:30.057Z,74.25
2018-05-04T00:27:06.675Z,73.17
2018-05-04T00:27:43.249Z,73.26
2018-05-04T00:28:18.762Z,73.45
2018-05-04T00:28:54.110Z,73.83
2018-05-04T00:29:29.343Z,74.50
2018-05-04T00:30:04.799Z,74.12
2018-05-04T00:30:41.716Z,73.74
2018-05-04T00:31:17.283Z,73.74
2018-05-04T00:31:52.500Z,73.87
2018-05-04T00:32:28.031Z,73.74
2018-05-04T00:33:03.801Z,73.83
2018-05-04T00:33:39.051Z,73.55
2018-05-04T00:34:14.365Z,73.55
2018-05-04T00:34:50.024Z,73.26
2018-05-04T00:35:25.419Z,73.93
2018-05-04T00:36:00.681Z,73.07
2018-05-04T00:36:36.306Z,74.40
2018-05-04T00:37:11.714Z,73.55
2018-05-04T00:37:46.855Z,73.55
2018-05-04T00:38:22.081Z,73.17
2018-05-04T00:38:57.868Z,73.55
2018-05-04T00:39:33.115Z,73.74
2018-05-04T00:40:08.681Z,73.93
2018-05-04T00:40:47.002Z,73.36
2018-05-04T00:41:22.961Z,73.93
2018-05-04T00:41:58.505Z,73.74
2018-05-04T00:42:34.262Z,73.65
2018-05-04T00:43:09.925Z,73.74
2018-05-04T00:43:45.262Z,73.74
2018-05-04T00:44:20.580Z,73.65
2018-05-04T00:44:56.241Z,73.17
2018-05-04T00:45:31.683Z,73.93
2018-05-04T00:46:06.845Z,73.93
2018-05-04T00:46:43.370Z,73.07
2018-05-04T00:47:18.498Z,72.88
2018-05-04T00:47:53.909Z,73.17
2018-05-04T00:48:29.197Z,73.83
2018-05-04T00:49:04.607Z,73.07
2018-05-04T00:49:40.359Z,73.65
2018-05-04T00:50:15.916Z,73.17
2018-05-04T00:50:56.660Z,73.55
2018-05-04T00:51:32.003Z,73.55
2018-05-04T00:52:09.534Z,72.97
2018-05-04T00:52:49.105Z,73.36
2018-05-04T00:53:24.353Z,73.07
2018-05-04T00:53:59.844Z,73.74
2018-05-04T00:54:35.146Z,73.74
2018-05-04T00:55:10.486Z,72.88
2018-05-04T00:55:45.699Z,73.17
2018-05-04T00:56:21.207Z,72.97
2018-05-04T00:56:57.722Z,73.36
2018-05-04T00:57:33.289Z,73.17
2018-05-04T00:58:08.611Z,73.17
2018-05-04T00:58:43.927Z,73.45
2018-05-04T00:59:19.274Z,73.26
2018-05-04T00:59:54.528Z,73.26
2018-05-04T01:00:29.942Z,73.65
2018-05-04T01:01:05.411Z,72.31
2018-05-04T01:01:40.738Z,73.26
2018-05-04T01:02:16.574Z,73.17
2018-05-04T01:02:52.178Z,73.07
2018-05-04T01:03:27.707Z,72.97
2018-05-04T01:04:03.188Z,72.41
2018-05-04T01:04:39.968Z,72.60
2018-05-04T01:05:15.479Z,73.07
2018-05-04T01:05:50.908Z,72.60
2018-05-04T01:06:26.416Z,72.50
2018-05-04T01:07:01.850Z,73.17
2018-05-04T01:07:37.363Z,73.26
2018-05-04T01:08:12.972Z,72.69
2018-05-04T01:08:48.167Z,73.07
2018-05-04T01:09:24.494Z,72.60
2018-05-04T01:10:03.141Z,72.41
2018-05-04T01:10:38.821Z,73.17
2018-05-04T01:11:17.250Z,72.50
2018-05-04T01:11:52.607Z,72.21
2018-05-04T01:14:29.041Z,72.60
2018-05-04T01:15:06.775Z,73.17
2018-05-04T01:15:46.288Z,73.07
2018-05-04T01:16:23.166Z,73.17
2018-05-04T01:16:58.784Z,72.41
2018-05-04T01:17:34.189Z,72.50
2018-05-04T01:18:09.833Z,73.36
2018-05-04T01:18:45.109Z,73.26
2018-05-04T01:19:20.350Z,73.07
2018-05-04T01:19:56.045Z,72.88
2018-05-04T01:20:31.510Z,73.26
2018-05-04T01:21:06.905Z,73.26
2018-05-04T01:21:42.020Z,73.36
2018-05-04T01:22:17.407Z,73.45
2018-05-04T01:22:59.227Z,73.07
2018-05-04T01:23:34.764Z,73.36
2018-05-04T01:24:10.228Z,73.13
2018-05-04T01:24:45.689Z,73.26
2018-05-04T01:25:22.737Z,73.17
2018-05-04T01:25:57.987Z,72.97
2018-05-04T01:26:33.118Z,73.26
2018-05-04T01:27:08.429Z,73.03
2018-05-04T01:27:43.974Z,73.17
2018-05-04T01:28:19.535Z,72.60
2018-05-04T01:28:54.967Z,72.94
2018-05-04T01:29:30.297Z,72.78
2018-05-04T01:30:05.427Z,73.07
2018-05-04T01:30:41.954Z,73.07
2018-05-04T01:31:17.439Z,73.03
2018-05-04T01:31:52.859Z,73.32
2018-05-04T01:32:28.610Z,73.45
2018-05-04T01:33:03.734Z,73.32
2018-05-04T01:33:39.459Z,72.94
2018-05-04T01:34:14.885Z,73.51
2018-05-04T01:34:50.142Z,73.07
2018-05-04T01:35:25.467Z,73.32
2018-05-04T01:36:00.918Z,72.27
2018-05-04T01:36:36.577Z,72.94
2018-05-04T01:37:12.218Z,72.94
2018-05-04T01:37:47.555Z,73.41
2018-05-04T01:38:22.906Z,73.45
2018-05-04T01:38:58.200Z,73.51
2018-05-04T01:39:33.559Z,72.88
2018-05-04T01:40:08.868Z,73.03
2018-05-04T01:40:46.299Z,73.22
2018-05-04T01:41:21.940Z,73.22
2018-05-04T01:41:57.524Z,73.70
2018-05-04T01:42:32.838Z,73.22
2018-05-04T01:43:08.189Z,73.17
2018-05-04T01:43:43.410Z,72.56
2018-05-04T01:44:18.885Z,73.22
2018-05-04T01:44:54.437Z,73.32
2018-05-04T01:45:30.156Z,73.70
2018-05-04T01:46:05.868Z,73.51
2018-05-04T01:46:41.363Z,73.41
2018-05-04T01:47:16.699Z,73.32
2018-05-04T01:47:52.050Z,73.89
2018-05-04T01:48:28.595Z,73.22
2018-05-04T01:49:04.069Z,73.13
2018-05-04T01:49:39.298Z,72.46
2018-05-04T01:50:14.503Z,72.85
2018-05-04T01:50:49.745Z,72.85
2018-05-04T01:51:24.948Z,73.13
2018-05-04T01:52:00.901Z,73.22
2018-05-04T01:52:36.517Z,73.41
2018-05-04T01:53:11.736Z,73.03
2018-05-04T01:53:47.302Z,73.22
2018-05-04T01:54:22.855Z,73.51
2018-05-04T01:54:58.352Z,73.13
2018-05-04T01:55:33.803Z,73.51
2018-05-04T01:56:09.720Z,73.32
2018-05-04T01:56:45.928Z,73.41
2018-05-04T01:57:21.295Z,73.13
2018-05-04T01:57:56.625Z,74.27
2018-05-04T01:58:31.947Z,73.03
2018-05-04T01:59:07.352Z,73.22
2018-05-04T01:59:42.651Z,73.03
2018-05-04T02:00:18.029Z,73.41
2018-05-04T02:00:53.647Z,74.18
2018-05-04T02:01:29.027Z,73.32
2018-05-04T02:02:04.241Z,72.94
2018-05-04T02:02:39.933Z,73.22
2018-05-04T02:03:15.745Z,74.46
2018-05-04T02:03:51.383Z,73.32
2018-05-04T02:04:26.819Z,73.13
2018-05-04T02:05:02.248Z,73.22
2018-05-04T02:05:37.816Z,72.75
2018-05-04T02:06:13.267Z,73.03
2018-05-04T02:06:48.753Z,72.65
2018-05-04T02:07:24.105Z,73.41
2018-05-04T02:07:59.744Z,73.22
2018-05-04T02:08:35.270Z,73.22
2018-05-04T02:09:10.682Z,73.41
2018-05-04T02:09:46.106Z,73.41
2018-05-04T02:10:21.731Z,73.03
2018-05-04T02:10:57.189Z,72.94
2018-05-04T02:11:32.610Z,73.41
2018-05-04T02:12:08.144Z,73.32
2018-05-04T02:12:43.499Z,73.51
2018-05-04T02:13:18.747Z,73.22
2018-05-04T02:13:54.205Z,72.27
2018-05-04T02:14:29.842Z,72.75
2018-05-04T02:15:05.347Z,72.75
2018-05-04T02:15:42.499Z,73.13
2018-05-04T02:16:18.022Z,72.65
2018-05-04T02:16:53.251Z,72.94
2018-05-04T02:17:28.371Z,73.61
2018-05-04T02:18:03.685Z,73.70
2018-05-04T02:18:39.002Z,73.32
2018-05-04T02:19:14.257Z,72.94
2018-05-04T02:19:49.711Z,72.94
2018-05-04T02:20:25.129Z,72.17
2018-05-04T02:21:00.434Z,72.46
2018-05-04T02:21:35.773Z,73.13
2018-05-04T02:22:11.211Z,73.51
2018-05-04T02:22:46.739Z,72.94
2018-05-04T02:23:22.182Z,73.32
2018-05-04T02:23:57.519Z,73.99
2018-05-04T02:24:32.920Z,73.03
2018-05-04T02:25:08.463Z,72.94
2018-05-04T02:25:45.589Z,72.37
2018-05-04T02:26:20.848Z,73.22
2018-05-04T02:26:56.249Z,73.03
2018-05-04T02:27:32.217Z,73.03
2018-05-04T02:28:07.729Z,74.18
2018-05-04T02:28:43.103Z,72.85
2018-05-04T02:29:18.812Z,73.89
2018-05-04T02:29:53.951Z,73.13
2018-05-04T02:30:29.366Z,73.03
2018-05-04T02:31:06.504Z,72.94
2018-05-04T02:31:41.934Z,73.03
2018-05-04T02:32:17.180Z,73.13
2018-05-04T02:32:52.305Z,73.13
2018-05-04T02:33:27.789Z,73.22
2018-05-04T02:34:03.257Z,73.32
2018-05-04T02:34:38.456Z,73.32
2018-05-04T02:35:13.670Z,72.85
2018-05-04T02:35:53.121Z,73.13
2018-05-04T02:36:28.462Z,73.32
2018-05-04T02:37:03.609Z,73.32
2018-05-04T02:37:39.323Z,73.22
2018-05-04T02:38:14.661Z,73.03
2018-05-04T02:38:50.271Z,72.94
2018-05-04T02:39:25.592Z,72.65
2018-05-04T02:40:00.779Z,71.89
2018-05-04T02:40:36.224Z,72.94
2018-05-04T02:41:11.636Z,72.27
2018-05-04T02:41:47.081Z,73.22
2018-05-04T02:42:22.417Z,72.46
2018-05-04T02:42:57.643Z,72.85
2018-05-04T02:43:33.004Z,72.94
2018-05-04T02:44:08.041Z,73.70
2018-05-04T02:44:43.316Z,73.41
2018-05-04T02:45:18.733Z,72.46
2018-05-04T02:45:54.066Z,72.46
2018-05-04T02:46:29.782Z,71.80
2018-05-04T02:47:05.231Z,72.75
2018-05-04T02:47:40.362Z,72.62
2018-05-04T02:48:15.943Z,72.62
2018-05-04T02:48:51.383Z,73.85
2018-05-04T02:49:27.017Z,73.22
2018-05-04T02:50:02.467Z,73.32
2018-05-04T02:50:38.187Z,73.10
2018-05-04T02:51:13.796Z,72.42
2018-05-04T02:51:49.163Z,72.33
2018-05-04T02:52:24.576Z,73.00
2018-05-04T02:52:59.928Z,73.00
2018-05-04T02:53:35.453Z,73.10
2018-05-04T02:54:10.679Z,73.85
2018-05-04T02:54:46.131Z,73.85
2018-05-04T02:55:21.418Z,72.62
2018-05-04T02:55:56.742Z,72.42
2018-05-04T02:56:31.999Z,73.28
2018-05-04T02:57:09.206Z,72.90
2018-05-04T02:57:44.373Z,72.42
2018-05-04T02:58:19.506Z,72.81
2018-05-04T02:58:54.850Z,72.90
2018-05-04T02:59:30.170Z,73.00
2018-05-04T03:00:05.698Z,73.28
2018-05-04T03:00:41.136Z,73.00
2018-05-04T03:01:17.122Z,72.62
2018-05-04T03:01:52.334Z,74.04
2018-05-04T03:02:28.485Z,73.10
2018-05-04T03:03:03.814Z,74.33
2018-05-04T03:03:39.261Z,73.76
2018-05-04T03:04:14.448Z,73.51
2018-05-04T03:04:50.564Z,72.62
2018-05-04T03:05:25.873Z,72.42
2018-05-04T03:06:01.590Z,71.57
2018-05-04T03:06:37.257Z,71.95
2018-05-04T03:07:12.901Z,72.14
2018-05-04T03:07:48.605Z,71.76
2018-05-04T03:08:23.930Z,72.05
2018-05-04T03:08:59.422Z,71.67
2018-05-04T03:09:35.076Z,70.90
2018-05-04T03:10:10.411Z,70.72
2018-05-04T03:10:47.282Z,70.27
2018-05-04T03:11:22.700Z,70.33
2018-05-04T03:11:58.058Z,70.75
2018-05-04T03:12:33.376Z,70.14
2018-05-04T03:13:08.418Z,70.81
2018-05-04T03:13:43.618Z,70.72
2018-05-04T03:14:18.972Z,71.28
2018-05-04T03:14:54.312Z,71.57
2018-05-04T03:15:29.436Z,71.57
2018-05-04T03:16:05.077Z,71.57
2018-05-04T03:16:40.569Z,71.57
2018-05-04T03:17:15.876Z,71.67
2018-05-04T03:17:51.348Z,71.47
2018-05-04T03:18:26.688Z,71.00
2018-05-04T03:19:02.118Z,71.67
2018-05-04T03:19:37.560Z,72.42
2018-05-04T03:20:13.013Z,72.24
2018-05-04T03:20:48.637Z,71.47
2018-05-04T03:21:24.087Z,72.62
2018-05-04T03:21:59.471Z,72.24
2018-05-04T03:22:34.739Z,72.14
2018-05-04T03:23:10.447Z,72.33
2018-05-04T03:23:45.979Z,72.81
2018-05-04T03:24:21.305Z,71.67
2018-05-04T03:24:56.725Z,72.90
2018-05-04T03:25:32.123Z,72.81
2018-05-04T03:26:07.593Z,71.76
2018-05-04T03:26:43.251Z,71.86
2018-05-04T03:27:18.885Z,71.86
2018-05-04T03:27:54.122Z,71.95
2018-05-04T03:28:29.558Z,72.71
2018-05-04T03:29:05.303Z,71.86
2018-05-04T03:29:40.639Z,71.67
2018-05-04T03:30:16.480Z,71.57
2018-05-04T03:30:53.005Z,71.47
2018-05-04T03:31:28.719Z,70.24
2018-05-04T03:32:04.063Z,71.09
2018-05-04T03:32:39.637Z,70.81
2018-05-04T03:33:15.112Z,70.90
2018-05-04T03:33:50.618Z,71.57
2018-05-04T03:34:26.143Z,71.67
2018-05-04T03:35:01.717Z,71.09
2018-05-04T03:35:37.216Z,70.62
2018-05-04T03:36:12.644Z,70.43
2018-05-04T03:36:51.281Z,70.62
2018-05-04T03:37:26.949Z,70.81
2018-05-04T03:38:02.834Z,71.00
2018-05-04T03:38:38.175Z,71.47
2018-05-04T03:39:13.698Z,71.57
2018-05-04T03:39:49.448Z,71.19
2018-05-04T03:40:24.857Z,71.95
2018-05-04T03:41:00.109Z,70.81
2018-05-04T03:41:37.841Z,71.38
2018-05-04T03:42:13.885Z,70.33
2018-05-04T03:42:49.544Z,70.33
2018-05-04T03:43:25.161Z,71.09
2018-05-04T03:44:00.476Z,71.00
2018-05-04T03:44:35.731Z,71.57
2018-05-04T03:45:11.140Z,71.19
2018-05-04T03:45:46.359Z,71.57
2018-05-04T03:46:21.694Z,71.09
2018-05-04T03:46:57.430Z,71.86
2018-05-04T03:47:32.934Z,71.67
2018-05-04T03:48:08.188Z,71.47
2018-05-04T03:48:44.439Z,71.38
2018-05-04T03:49:19.976Z,71.95
2018-05-04T03:49:55.587Z,72.33
2018-05-04T03:50:30.936Z,71.38
2018-05-04T03:51:06.179Z,71.57
2018-05-04T03:51:41.739Z,71.38
2018-05-04T03:52:17.045Z,72.42
2018-05-04T03:52:52.282Z,71.67
2018-05-04T03:53:27.889Z,70.72
2018-05-04T03:54:03.192Z,70.72
2018-05-04T03:54:38.617Z,71.09
2018-05-04T03:55:14.040Z,71.86
2018-05-04T03:57:50.394Z,71.76
2018-05-04T03:58:26.032Z,71.76
2018-05-04T03:59:00.969Z,72.42
2018-05-04T03:59:36.447Z,71.57
2018-05-04T04:00:11.553Z,72.05
2018-05-04T04:00:48.538Z,71.67
2018-05-04T04:01:24.246Z,72.14
2018-05-04T04:01:59.559Z,71.47
2018-05-04T04:02:35.292Z,72.33
2018-05-04T04:03:10.857Z,71.76
2018-05-04T04:03:46.176Z,71.57
2018-05-04T04:04:21.394Z,72.14
2018-05-04T04:04:57.344Z,72.14
2018-05-04T04:05:32.768Z,71.57
2018-05-04T04:06:08.207Z,71.95
2018-05-04T04:06:44.206Z,72.14
2018-05-04T04:07:19.574Z,73.19
2018-05-04T04:07:55.168Z,72.24
2018-05-04T04:08:30.453Z,72.24
2018-05-04T04:09:05.704Z,72.14
2018-05-04T04:09:41.131Z,70.81
2018-05-04T04:10:16.516Z,71.67
2018-05-04T04:10:55.263Z,70.90
2018-05-04T04:11:30.583Z,70.52
2018-05-04T04:12:06.123Z,71.47
2018-05-04T04:12:41.356Z,71.00
2018-05-04T04:13:16.739Z,71.19
2018-05-04T04:13:52.040Z,71.57
2018-05-04T04:14:27.199Z,70.90
2018-05-04T04:15:02.736Z,71.47
2018-05-04T04:15:38.510Z,70.81
2018-05-04T04:16:13.760Z,70.81
2018-05-04T04:16:49.057Z,71.76
2018-05-04T04:17:24.556Z,71.47
2018-05-04T04:18:00.034Z,72.71
2018-05-04T04:18:35.328Z,72.42
2018-05-04T04:19:10.963Z,72.24
2018-05-04T04:19:46.715Z,72.05
2018-05-04T04:20:22.250Z,71.67
2018-05-04T04:20:57.918Z,72.42
2018-05-04T04:21:33.263Z,72.33
2018-05-04T04:22:08.577Z,71.57
2018-05-04T04:22:43.796Z,71.95
2018-05-04T04:23:19.189Z,72.05
2018-05-04T04:23:54.471Z,71.76
2018-05-04T04:24:29.684Z,71.47
2018-05-04T04:25:05.001Z,71.47
2018-05-04T04:25:40.238Z,71.86
2018-05-04T04:26:16.097Z,72.14
2018-05-04T04:26:51.618Z,70.81
2018-05-04T04:27:27.027Z,70.81
2018-05-04T04:28:02.326Z,71.67
2018-05-04T04:28:38.154Z,71.38
2018-05-04T04:29:13.437Z,70.90
2018-05-04T04:29:48.771Z,70.90
2018-05-04T04:30:24.477Z,71.47
2018-05-04T04:30:59.988Z,70.90
2018-05-04T04:31:35.427Z,71.00
2018-05-04T04:32:10.979Z,70.90
2018-05-04T04:32:46.512Z,70.05
2018-05-04T04:33:22.009Z,70.33
2018-05-04T04:33:57.312Z,71.19
2018-05-04T04:34:33.011Z,70.72
2018-05-04T04:35:08.273Z,70.52
2018-05-04T04:35:45.094Z,70.05
2018-05-04T04:36:20.975Z,69.67
2018-05-04T04:36:56.448Z,70.33
2018-05-04T04:37:31.896Z,70.33
2018-05-04T04:38:07.226Z,70.14
2018-05-04T04:38:42.515Z,70.33
2018-05-04T04:39:18.032Z,69.48
2018-05-04T04:39:53.330Z,68.90
2018-05-04T04:40:28.766Z,69.29
2018-05-04T04:41:04.268Z,69.15
2018-05-04T04:41:39.467Z,69.15
2018-05-04T04:42:14.688Z,69.48
2018-05-04T04:42:50.077Z,69.85
2018-05-04T04:43:25.385Z,69.95
2018-05-04T04:44:00.826Z,69.48
2018-05-04T04:44:36.354Z,69.73
2018-05-04T04:45:11.639Z,69.06
2018-05-04T04:45:51.065Z,69.15
2018-05-04T04:46:27.137Z,69.38
2018-05-04T04:47:02.415Z,69.76
2018-05-04T04:47:37.741Z,68.90
2018-05-04T04:48:13.056Z,69.76
2018-05-04T04:48:48.647Z,69.48
2018-05-04T04:49:24.252Z,68.81
2018-05-04T04:49:59.584Z,68.87
2018-05-04T04:50:34.649Z,70.14
2018-05-04T04:51:09.897Z,69.76
2018-05-04T04:51:45.234Z,69.85
2018-05-04T04:52:20.591Z,69.76
2018-05-04T04:52:55.929Z,69.48
2018-05-04T04:53:31.562Z,69.19
2018-05-04T04:54:06.963Z,69.10
2018-05-04T04:54:42.382Z,69.85
2018-05-04T04:55:17.654Z,69.85
2018-05-04T04:55:52.963Z,69.76
2018-05-04T04:56:28.510Z,71.00
2018-05-04T04:57:03.795Z,69.76
2018-05-04T04:57:39.081Z,69.48
2018-05-04T04:58:14.411Z,69.67
2018-05-04T04:58:50.002Z,69.76
2018-05-04T04:59:25.708Z,69.95
2018-05-04T05:00:01.207Z,69.10
2018-05-04T05:00:39.499Z,69.00
2018-05-04T05:01:14.889Z,70.14
2018-05-04T05:01:50.353Z,69.95
2018-05-04T05:02:25.580Z,69.57
2018-05-04T05:03:00.934Z,69.48
2018-05-04T05:03:36.153Z,70.05
2018-05-04T05:04:11.471Z,69.67
2018-05-04T05:04:47.095Z,69.76
2018-05-04T05:05:22.530Z,69.00
2018-05-04T05:05:59.621Z,69.76
2018-05-04T05:06:35.048Z,69.67
2018-05-04T05:07:11.961Z,69.67
2018-05-04T05:07:47.419Z,69.95
2018-05-04T05:08:22.729Z,69.38
2018-05-04T05:08:58.351Z,69.76
2018-05-04T05:09:33.590Z,70.24
2018-05-04T05:10:08.949Z,69.19
2018-05-04T05:10:44.552Z,69.29
2018-05-04T05:11:19.963Z,69.19
2018-05-04T05:11:55.359Z,69.10
2018-05-04T05:12:30.736Z,69.60
2018-05-04T05:13:05.953Z,70.24
2018-05-04T05:13:41.678Z,69.67
2018-05-04T05:14:16.795Z,69.76
2018-05-04T05:14:51.972Z,69.79
2018-05-04T05:15:27.388Z,69.67
2018-05-04T05:16:02.720Z,69.51
2018-05-04T05:16:38.059Z,69.04
2018-05-04T05:17:13.439Z,69.19
2018-05-04T05:17:48.860Z,69.67
2018-05-04T05:18:25.646Z,69.42
2018-05-04T05:19:00.864Z,69.57
2018-05-04T05:19:36.701Z,69.57
2018-05-04T05:20:11.992Z,70.27
2018-05-04T05:20:47.414Z,69.38
2018-05-04T05:21:22.891Z,68.90
2018-05-04T05:21:58.558Z,69.10
2018-05-04T05:22:33.912Z,69.48
2018-05-04T05:23:09.432Z,68.90
2018-05-04T05:23:44.707Z,69.19
2018-05-04T05:24:19.961Z,69.23
2018-05-04T05:24:55.260Z,69.32
2018-05-04T05:25:30.703Z,68.94
2018-05-04T05:26:06.052Z,69.32
2018-05-04T05:26:41.674Z,69.99
2018-05-04T05:27:17.395Z,69.60
2018-05-04T05:27:52.686Z,69.60
2018-05-04T05:28:28.299Z,69.04
2018-05-04T05:29:03.538Z,69.04
2018-05-04T05:29:38.628Z,69.13
2018-05-04T05:30:13.791Z,70.08
2018-05-04T05:30:49.349Z,69.79
2018-05-04T05:31:24.773Z,69.79
2018-05-04T05:32:00.499Z,70.37
2018-05-04T05:32:35.732Z,69.89
2018-05-04T05:33:11.228Z,69.99
2018-05-04T05:33:46.543Z,69.89
2018-05-04T05:34:22.243Z,70.18
2018-05-04T05:34:57.588Z,69.70
2018-05-04T05:35:33.171Z,70.08
2018-05-04T05:36:08.443Z,70.37
2018-05-04T05:36:43.743Z,69.70
2018-05-04T05:37:19.069Z,69.60
2018-05-04T05:37:54.366Z,69.99
2018-05-04T05:38:29.692Z,69.89
2018-05-04T05:39:05.216Z,69.32
2018-05-04T05:39:40.406Z,69.99
2018-05-04T05:40:15.854Z,69.70
2018-05-04T05:40:51.350Z,70.27
2018-05-04T05:41:27.954Z,69.89
2018-05-04T05:42:04.139Z,70.18
2018-05-04T05:42:40.047Z,69.93
2018-05-04T05:43:15.651Z,69.93
2018-05-04T05:43:51.059Z,70.88
2018-05-04T05:44:26.591Z,70.69
2018-05-04T05:45:03.287Z,70.50
2018-05-04T05:45:38.943Z,70.50
2018-05-04T05:46:14.402Z,70.50
2018-05-04T05:46:50.419Z,69.74
2018-05-04T05:47:25.740Z,69.93
2018-05-04T05:48:01.102Z,70.02
2018-05-04T05:48:36.605Z,70.88
2018-05-04T05:49:11.711Z,71.07
2018-05-04T05:49:46.839Z,71.07
2018-05-04T05:50:22.031Z,71.07
2018-05-04T05:50:57.385Z,71.07
2018-05-04T05:51:32.786Z,70.78
2018-05-04T05:52:08.004Z,70.78
2018-05-04T05:52:45.092Z,70.92
2018-05-04T05:53:20.503Z,70.63
2018-05-04T05:53:55.800Z,71.39
2018-05-04T05:54:31.355Z,71.30
2018-05-04T05:55:06.659Z,71.68
2018-05-04T05:55:43.170Z,71.30
2018-05-04T05:56:18.606Z,71.68
2018-05-04T05:56:54.198Z,71.11
2018-05-04T05:57:29.922Z,71.87
2018-05-04T05:58:05.301Z,71.30
2018-05-04T05:58:41.265Z,71.77
2018-05-04T05:59:16.577Z,71.68
2018-05-04T05:59:52.103Z,71.87
2018-05-04T06:00:27.679Z,71.77
2018-05-04T06:01:02.700Z,71.62
2018-05-04T06:01:39.477Z,71.81
2018-05-04T06:02:14.818Z,71.62
2018-05-04T06:02:49.948Z,72.09
2018-05-04T06:03:25.480Z,71.72
2018-05-04T06:04:01.312Z,71.62
2018-05-04T06:04:36.343Z,71.81
2018-05-04T06:05:12.069Z,71.72
2018-05-04T06:05:47.679Z,72.09
2018-05-04T06:06:23.298Z,71.91
2018-05-04T06:07:01.395Z,71.66
2018-05-04T06:07:38.239Z,72.13
2018-05-04T06:08:13.659Z,72.03
2018-05-04T06:08:48.759Z,71.66
2018-05-04T06:09:24.060Z,71.84
2018-05-04T06:09:59.379Z,72.03
2018-05-04T06:10:34.715Z,71.66
2018-05-04T06:11:10.111Z,72.03
2018-05-04T06:11:45.528Z,72.03
2018-05-04T06:12:23.905Z,71.59
2018-05-04T06:13:02.300Z,71.75
2018-05-04T06:13:40.420Z,71.84
2018-05-04T06:14:15.825Z,71.56
2018-05-04T06:14:51.145Z,71.66
2018-05-04T06:15:27.645Z,71.88
2018-05-04T06:16:03.282Z,71.88
2018-05-04T06:16:38.766Z,71.98
2018-05-04T06:17:14.333Z,71.50
2018-05-04T06:17:49.636Z,71.98
2018-05-04T06:18:24.970Z,71.78
2018-05-04T06:19:00.300Z,71.69
2018-05-04T06:19:36.015Z,71.88
2018-05-04T06:20:11.360Z,71.53
2018-05-04T06:20:46.998Z,71.31
2018-05-04T06:21:22.396Z,71.21
2018-05-04T06:21:57.712Z,71.25
2018-05-04T06:22:33.157Z,71.53
2018-05-04T06:23:08.480Z,71.25
2018-05-04T06:23:44.697Z,71.92
2018-05-04T06:24:19.843Z,71.92
2018-05-04T06:24:55.225Z,71.34
2018-05-04T06:25:30.538Z,71.34
2018-05-04T06:26:08.832Z,71.47
2018-05-04T06:26:44.230Z,71.57
2018-05-04T06:27:19.661Z,70.90
2018-05-04T06:27:55.230Z,70.52
2018-05-04T06:28:36.848Z,70.42
2018-05-04T06:29:12.780Z,70.23
2018-05-04T06:29:51.558Z,69.76
2018-05-04T06:30:27.116Z,69.37
2018-05-04T06:31:05.656Z,69.21
2018-05-04T06:31:40.873Z,69.02
2018-05-04T06:32:16.209Z,68.35
2018-05-04T06:32:51.832Z,69.21
2018-05-04T06:33:32.951Z,68.96
2018-05-04T06:34:08.259Z,68.96
2018-05-04T06:34:46.804Z,68.23
2018-05-04T06:35:25.207Z,68.23
2018-05-04T06:36:00.850Z,66.45
2018-05-04T06:36:38.419Z,66.64
2018-05-04T06:37:13.707Z,65.62
2018-05-04T06:37:49.244Z,65.62
2018-05-04T06:38:24.655Z,64.56
2018-05-04T06:39:00.324Z,64.09
2018-05-04T06:39:35.762Z,63.92
2018-05-04T06:40:11.379Z,64.02
2018-05-04T06:40:47.111Z,63.57
2018-05-04T06:41:22.357Z,62.71
2018-05-04T06:41:57.853Z,62.42
2018-05-04T06:42:33.320Z,62.45
2018-05-04T06:43:08.622Z,61.88
2018-05-04T06:43:45.238Z,61.30
2018-05-04T06:44:20.811Z,60.79
2018-05-04T06:44:56.620Z,60.89
2018-05-04T06:45:33.769Z,60.50
2018-05-04T06:46:09.167Z,61.46
2018-05-04T06:46:45.608Z,60.99
2018-05-04T06:47:21.000Z,60.63
2018-05-04T06:47:56.776Z,61.02
2018-05-04T06:48:32.083Z,60.82
2018-05-04T06:49:07.722Z,60.05
2018-05-04T06:49:43.374Z,59.38
2018-05-04T06:50:18.706Z,59.38
2018-05-04T06:50:54.952Z,58.71
2018-05-04T06:51:30.583Z,57.95
2018-05-04T06:52:06.096Z,58.14
2018-05-04T06:52:41.620Z,58.91
2018-05-04T06:53:17.004Z,58.62
2018-05-04T06:53:52.376Z,58.62
2018-05-04T06:54:27.617Z,58.49
2018-05-04T06:55:03.458Z,60.05
2018-05-04T06:55:38.861Z,58.91
2018-05-04T06:56:14.215Z,59.38
2018-05-04T06:56:49.810Z,59.48
2018-05-04T06:57:25.156Z,58.62
2018-05-04T06:58:00.477Z,58.94
2018-05-04T06:58:37.994Z,59.41
2018-05-04T06:59:13.318Z,58.84
2018-05-04T06:59:49.467Z,58.84
2018-05-04T07:00:25.179Z,58.17
2018-05-04T07:01:00.659Z,59.03
2018-05-04T07:01:36.058Z,59.12
2018-05-04T07:02:11.591Z,58.45
2018-05-04T07:02:49.580Z,58.17
2018-05-04T07:03:25.718Z,58.29
2018-05-04T07:04:01.227Z,58.26
2018-05-04T07:04:40.012Z,58.36
2018-05-04T07:05:15.161Z,58.74
2018-05-04T07:05:53.887Z,58.14
2018-05-04T07:06:29.506Z,59.00
2018-05-04T07:07:05.639Z,59.19
2018-05-04T07:07:41.142Z,59.00
2018-05-04T07:08:19.920Z,58.04
2018-05-04T07:08:55.198Z,58.04
2018-05-04T07:09:30.272Z,59.38
2018-05-04T07:10:05.635Z,58.91
2018-05-04T07:10:42.586Z,58.33
2018-05-04T07:11:17.920Z,59.32
2018-05-04T07:11:54.331Z,59.41
2018-05-04T07:12:33.059Z,59.22
2018-05-04T07:13:08.277Z,58.07
2018-05-04T07:13:46.922Z,57.88
2018-05-04T07:14:22.532Z,57.97
2018-05-04T07:15:00.583Z,57.68
2018-05-04T07:15:34.025Z,57.68
2018-05-04T07:16:10.758Z,57.68
2018-05-04T07:16:49.184Z,57.78
2018-05-04T07:17:24.411Z,57.01
2018-05-04T07:17:59.656Z,57.04
2018-05-04T07:18:34.784Z,57.33
2018-05-04T07:19:10.122Z,57.07
2018-05-04T07:19:45.633Z,56.40
2018-05-04T07:20:24.356Z,56.59
2018-05-04T07:20:59.491Z,56.49
2018-05-04T07:21:34.740Z,55.91
2018-05-04T07:22:10.651Z,56.23
2018-05-04T07:22:46.014Z,56.23
2018-05-04T07:23:21.358Z,55.37
2018-05-04T07:23:57.491Z,54.99
2018-05-04T07:24:33.324Z,54.60
2018-05-04T07:25:08.763Z,54.31
2018-05-04T07:25:48.294Z,54.60
2018-05-04T07:26:26.627Z,54.31
2018-05-04T07:27:02.146Z,53.74
2018-05-04T07:27:37.814Z,53.92
2018-05-04T07:28:13.539Z,54.02
2018-05-04T07:28:49.190Z,54.43
2018-05-04T07:29:24.554Z,54.05
2018-05-04T07:30:03.495Z,53.25
2018-05-04T07:30:43.062Z,53.16
2018-05-04T07:31:18.506Z,53.38
2018-05-04T07:31:53.695Z,53.19
2018-05-04T07:32:29.106Z,52.89
2018-05-04T07:33:07.932Z,52.92
2018-05-04T07:33:43.171Z,52.51
2018-05-04T07:34:18.890Z,53.31
2018-05-04T07:34:54.432Z,53.02
2018-05-04T07:35:29.776Z,51.86
2018-05-04T07:36:05.134Z,51.67
2018-05-04T07:36:47.365Z,50.63
2018-05-04T07:37:25.146Z,51.41
2018-05-04T07:38:00.586Z,50.66
2018-05-04T07:38:37.627Z,50.47
2018-05-04T07:39:12.971Z,51.56
2018-05-04T07:39:51.622Z,51.65
2018-05-04T07:40:27.185Z,50.69
2018-05-04T07:41:06.110Z,49.91
2018-05-04T07:41:45.464Z,49.89
2018-05-04T07:42:20.992Z,50.01
2018-05-04T07:42:56.467Z,49.05
2018-05-04T07:43:35.416Z,49.34
2018-05-04T07:44:10.913Z,49.27